Time;durP1;ratioP1;P1;durP2;ratioP2;P2;SDS_P1;SDS_P2;PMS_P1;PMS_P2;Temp;Humidity;BMP_temperature;BMP_pressure;BME280_temperature;BME280_humidity;BME280_pressure;Samples;Min_cycle;Max_cycle;Signal;HPM_P1;HPM_P2
2022/12/26 00:01:31;;;;;;;5.78;5.25;;;12.00;99.90;;;;;;4995346;28;20185;-78
2022/12/26 00:03:57;;;;;;;5.53;5.07;;;12.00;99.90;;;;;;4995060;28;20287;-80
2022/12/26 00:06:25;;;;;;;5.57;5.07;;;11.90;99.90;;;;;;4996972;28;20255;-81
2022/12/26 00:08:52;;;;;;;5.30;4.82;;;12.00;99.90;;;;;;4996697;28;20161;-80
2022/12/26 00:11:19;;;;;;;6.00;5.50;;;12.00;99.90;;;;;;4997246;28;20803;-82
2022/12/26 00:13:45;;;;;;;5.65;5.25;;;12.00;99.90;;;;;;4995611;28;20724;-79
2022/12/26 00:16:17;;;;;;;9.40;5.15;;;12.10;99.90;;;;;;4996247;28;20211;-80
2022/12/26 00:18:43;;;;;;;5.75;5.25;;;12.30;99.90;;;;;;4995908;28;20648;-83
2022/12/26 00:21:12;;;;;;;5.03;4.60;;;12.30;99.90;;;;;;4996009;28;20169;-84
2022/12/26 00:23:38;;;;;;;5.22;4.82;;;12.30;99.90;;;;;;4995820;28;20252;-82
2022/12/26 00:26:10;;;;;;;5.45;4.97;;;12.20;99.90;;;;;;4995867;28;20642;-81
2022/12/26 00:28:36;;;;;;;5.13;4.72;;;12.30;99.90;;;;;;4995652;28;20259;-80
2022/12/26 00:31:10;;;;;;;5.57;5.05;;;12.40;99.90;;;;;;4995504;28;20598;-78
2022/12/26 00:33:36;;;;;;;5.22;4.72;;;12.40;99.90;;;;;;4995384;28;20625;-80
2022/12/26 00:36:29;;;;;;;6.13;5.43;;;12.30;99.90;;;;;;4995318;28;20161;-78
2022/12/26 00:38:57;;;;;;;5.22;4.82;;;12.20;99.90;;;;;;4993769;28;20264;-78
2022/12/26 00:41:23;;;;;;;4.95;4.55;;;12.30;99.90;;;;;;4995576;28;20212;-87
2022/12/26 00:43:49;;;;;;;5.85;4.53;;;12.20;99.90;;;;;;4994964;28;20204;-78
2022/12/26 00:46:15;;;;;;;5.13;4.72;;;12.10;99.90;;;;;;4994138;28;20204;-79
2022/12/26 00:48:41;;;;;;;4.78;4.28;;;12.00;99.90;;;;;;4995303;28;20220;-81
2022/12/26 00:51:06;;;;;;;4.32;4.00;;;12.10;99.90;;;;;;4995339;28;20208;-78
2022/12/26 00:53:32;;;;;;;4.68;4.13;;;12.10;99.90;;;;;;4994889;28;20193;-79
2022/12/26 00:55:58;;;;;;;5.25;4.85;;;12.20;99.90;;;;;;4995396;28;20548;-85
2022/12/26 00:58:24;;;;;;;4.95;4.55;;;12.30;99.90;;;;;;4994053;28;20176;-81
2022/12/26 01:00:50;;;;;;;4.57;4.05;;;12.30;99.90;;;;;;5010393;28;20212;-80
2022/12/26 01:03:17;;;;;;;4.50;4.18;;;12.30;99.90;;;;;;4995132;28;20239;-80
2022/12/26 01:05:46;;;;;;;5.05;4.65;;;12.20;99.90;;;;;;4995301;28;20177;-79
2022/12/26 01:08:12;;;;;;;6.35;4.60;;;12.20;99.90;;;;;;4994949;28;20157;-79
2022/12/26 01:10:42;;;;;;;4.97;4.53;;;12.10;99.90;;;;;;4994903;28;20216;-78
2022/12/26 01:13:08;;;;;;;4.63;4.22;;;12.10;99.90;;;;;;4994866;28;20181;-79
2022/12/26 01:15:34;;;;;;;4.10;3.80;;;12.20;99.90;;;;;;4994786;28;20246;-87
2022/12/26 01:18:00;;;;;;;4.50;4.15;;;12.30;99.90;;;;;;4993275;28;20200;-78
2022/12/26 01:20:26;;;;;;;4.82;4.43;;;12.20;99.90;;;;;;4994672;28;20645;-82
2022/12/26 01:22:53;;;;;;;5.13;4.72;;;12.10;99.90;;;;;;4994839;28;20199;-81
2022/12/26 01:25:18;;;;;;;10.52;5.03;;;12.10;99.90;;;;;;5001218;28;20169;-80
2022/12/26 01:27:44;;;;;;;4.97;4.57;;;12.10;99.90;;;;;;4996904;28;20169;-80
2022/12/26 01:30:10;;;;;;;5.75;5.25;;;12.00;99.90;;;;;;4998828;28;20569;-80
2022/12/26 01:32:36;;;;;;;4.20;3.80;;;11.90;99.90;;;;;;4998295;28;20193;-79
2022/12/26 01:35:01;;;;;;;6.35;5.75;;;11.90;99.90;;;;;;4996425;28;20229;-80
2022/12/26 01:37:27;;;;;;;7.53;6.80;;;12.10;99.90;;;;;;4997500;28;20165;-83
2022/12/26 01:39:53;;;;;;;7.35;6.65;;;12.00;99.90;;;;;;4998571;28;20169;-79
2022/12/26 01:42:21;;;;;;;8.43;6.57;;;11.80;99.90;;;;;;4998966;28;20207;-82
2022/12/26 01:45:06;;;;;;;7.72;6.80;;;11.80;99.90;;;;;;4997717;28;20161;-80
2022/12/26 01:47:44;;;;;;;11.40;7.85;;;11.80;99.90;;;;;;4998757;28;20213;-81
2022/12/26 01:50:31;;;;;;;9.73;8.15;;;11.80;99.90;;;;;;5001227;28;20207;-79
2022/12/26 01:53:04;;;;;;;9.95;8.82;;;11.80;99.90;;;;;;5002252;28;20680;-79
2022/12/26 01:55:31;;;;;;;8.90;8.00;;;11.70;99.90;;;;;;5003887;28;20161;-79
2022/12/26 01:58:04;;;;;;;10.20;8.10;;;11.80;99.90;;;;;;5003891;28;20181;-78
2022/12/26 02:00:30;;;;;;;12.57;8.23;;;11.60;99.90;;;;;;4994812;28;20173;-81
2022/12/26 02:05:42;;;;;;;7.93;7.13;;;11.50;99.90;;;;;;4993983;28;20600;-79
2022/12/26 02:08:13;;;;;;;8.60;7.85;;;11.50;99.90;;;;;;4993929;28;20188;-79
2022/12/26 02:10:49;;;;;;;8.15;7.40;;;11.50;99.90;;;;;;4993556;28;20209;-78
2022/12/26 02:13:17;;;;;;;7.75;7.05;;;11.40;99.90;;;;;;4993992;28;20251;-81
2022/12/26 02:15:42;;;;;;;8.15;7.35;;;11.30;99.90;;;;;;4994044;28;20200;-82
2022/12/26 02:18:08;;;;;;;6.40;5.68;;;11.30;99.90;;;;;;4993955;28;20618;-79
2022/12/26 02:20:46;;;;;;;7.57;6.53;;;11.50;99.90;;;;;;4994108;28;20173;-87
2022/12/26 02:23:15;;;;;;;10.65;5.85;;;11.30;99.90;;;;;;4993838;28;20300;-86
2022/12/26 02:26:23;;;;;;;7.32;6.15;;;11.30;99.90;;;;;;4993805;28;20252;-79
2022/12/26 02:28:55;;;;;;;6.32;5.82;;;11.40;99.90;;;;;;4997266;28;20176;-78
2022/12/26 02:31:56;;;;;;;5.93;5.43;;;11.40;99.90;;;;;;5001326;28;20204;-79
2022/12/26 02:34:53;;;;;;;5.13;4.63;;;11.60;99.90;;;;;;5002398;28;20161;-79
2022/12/26 02:37:33;;;;;;;4.82;4.40;;;11.50;99.90;;;;;;5001753;28;20556;-78
2022/12/26 02:40:32;;;;;;;6.70;4.50;;;11.60;99.90;;;;;;5001612;28;20184;-79
2022/12/26 02:43:18;;;;;;;5.18;4.07;;;11.40;99.90;;;;;;5000881;28;20193;-78
2022/12/26 02:49:05;;;;;;;3.85;3.55;;;11.20;99.90;;;;;;5002237;28;20212;-79
2022/12/26 03:15:19;;;;;;;9.00;2.03;;;11.10;99.90;;;;;;5001472;28;20250;-78
2022/12/26 03:18:00;;;;;;;2.83;2.13;;;11.20;99.90;;;;;;4997072;28;20166;-78
2022/12/26 03:20:31;;;;;;;4.05;2.40;;;11.20;99.90;;;;;;4996922;28;20165;-80
2022/12/26 03:23:01;;;;;;;2.17;1.98;;;11.20;99.90;;;;;;4996397;28;20216;-78
2022/12/26 03:28:30;;;;;;;2.65;2.20;;;11.10;99.90;;;;;;4996599;28;20268;-79
2022/12/26 03:31:00;;;;;;;2.25;1.85;;;11.20;99.90;;;;;;4996656;28;20635;-83
2022/12/26 03:36:50;;;;;;;3.22;2.20;;;11.20;99.90;;;;;;4997522;28;20193;-87
2022/12/26 04:19:22;;;;;;;2.85;2.58;;;11.20;99.90;;;;;;4996520;28;20172;-83
2022/12/26 04:20:42;;;;;;;3.08;2.40;;;11.20;99.90;;;;;;5000392;28;20172;-80
2022/12/26 04:46:02;;;;;;;2.80;2.28;;;11.10;99.90;;;;;;5002208;28;20183;-79
2022/12/26 04:51:12;;;;;;;2.50;2.30;;;11.10;99.90;;;;;;5002854;28;20200;-83
2022/12/26 04:53:38;;;;;;;3.25;2.17;;;11.10;99.90;;;;;;5001904;28;20657;-81
2022/12/26 04:56:04;;;;;;;2.35;2.15;;;11.10;99.90;;;;;;4999904;28;20169;-86
2022/12/26 04:58:30;;;;;;;3.17;2.00;;;11.20;99.90;;;;;;5002168;28;20177;-80
2022/12/26 05:09:32;;;;;;;6.25;2.35;;;11.30;99.90;;;;;;5001726;28;20548;-79
2022/12/26 05:09:33;;;;;;;4.03;1.98;;;11.20;99.90;;;;;;4999678;28;20176;-80
2022/12/26 05:11:59;;;;;;;4.47;2.00;;;11.20;99.90;;;;;;4999338;28;20174;-81
2022/12/26 05:14:24;;;;;;;2.42;2.20;;;11.40;99.90;;;;;;4998836;28;20173;-82
2022/12/26 05:30:36;;;;;;;1.48;1.38;;;11.70;99.90;;;;;;5003868;28;20720;-78
2022/12/26 05:35:45;;;;;;;1.60;1.50;;;11.70;99.90;;;;;;5001640;28;20231;-81
2022/12/26 05:38:11;;;;;;;1.40;1.30;;;11.80;99.90;;;;;;5000601;28;20240;-88
2022/12/26 05:40:37;;;;;;;2.58;1.33;;;11.70;99.90;;;;;;4999079;28;20280;-84
2022/12/26 05:43:02;;;;;;;1.52;1.30;;;11.60;99.90;;;;;;5000209;28;20197;-81
2022/12/26 05:45:28;;;;;;;1.50;1.38;;;11.60;99.90;;;;;;5003212;28;20205;-79
2022/12/26 05:47:59;;;;;;;1.67;1.58;;;11.60;99.90;;;;;;5000232;28;20546;-78
2022/12/26 05:50:25;;;;;;;1.88;1.65;;;11.60;99.90;;;;;;4999907;28;20177;-86
2022/12/26 05:52:51;;;;;;;1.17;1.17;;;11.60;99.90;;;;;;5000262;28;20181;-81
2022/12/26 05:55:17;;;;;;;2.83;2.00;;;11.50;99.90;;;;;;5001242;28;20610;-79
2022/12/26 05:57:42;;;;;;;1.58;1.48;;;11.60;99.90;;;;;;5000354;28;20192;-82
2022/12/26 06:00:09;;;;;;;1.33;1.25;;;11.80;99.90;;;;;;5001511;28;20292;-87
2022/12/26 06:02:34;;;;;;;1.67;1.48;;;11.70;99.90;;;;;;4998671;28;20189;-83
2022/12/26 06:05:03;;;;;;;2.17;1.73;;;11.70;99.90;;;;;;4998840;28;20178;-78
2022/12/26 06:07:29;;;;;;;1.45;1.35;;;11.80;99.90;;;;;;5002801;28;20227;-78
2022/12/26 06:09:54;;;;;;;1.30;1.20;;;11.90;99.90;;;;;;4997570;28;20165;-83
2022/12/26 06:12:20;;;;;;;3.60;1.15;;;11.80;99.90;;;;;;5000255;28;20189;-86
2022/12/26 06:14:45;;;;;;;3.85;1.50;;;11.70;99.90;;;;;;4998675;28;20165;-84
2022/12/26 06:17:11;;;;;;;1.58;1.30;;;11.70;99.90;;;;;;4999345;28;20173;-81
2022/12/26 06:19:37;;;;;;;1.38;1.27;;;11.70;99.90;;;;;;4999965;28;20641;-79
2022/12/26 06:22:02;;;;;;;4.30;1.02;;;11.70;99.90;;;;;;4998812;28;20211;-81
2022/12/26 06:24:28;;;;;;;1.30;1.20;;;11.60;99.90;;;;;;4999005;28;20176;-86
2022/12/26 06:26:53;;;;;;;1.90;1.70;;;11.60;99.90;;;;;;5002143;28;20255;-86
2022/12/26 06:29:20;;;;;;;1.58;1.40;;;11.60;99.90;;;;;;4996590;28;20192;-83
2022/12/26 06:31:46;;;;;;;0.90;0.90;;;11.60;99.90;;;;;;4998806;28;20200;-87
2022/12/26 06:34:11;;;;;;;1.20;1.10;;;11.60;99.90;;;;;;4998162;28;20169;-82
2022/12/26 06:36:38;;;;;;;1.27;1.05;;;11.70;99.90;;;;;;4995930;28;20174;-81
2022/12/26 06:39:03;;;;;;;0.80;0.80;;;11.60;99.90;;;;;;4996878;28;20232;-81
2022/12/26 06:41:29;;;;;;;0.98;0.95;;;11.60;99.90;;;;;;4996488;28;20259;-84
2022/12/26 06:43:55;;;;;;;1.05;0.98;;;11.60;99.90;;;;;;4996882;28;20185;-79
2022/12/26 06:46:22;;;;;;;1.70;1.20;;;11.60;99.90;;;;;;4996188;28;20169;-80
2022/12/26 06:48:49;;;;;;;0.88;0.88;;;11.50;99.90;;;;;;4996898;28;20170;-82
2022/12/26 06:51:21;;;;;;;7.00;1.00;;;11.50;99.90;;;;;;4997102;28;20177;-81
2022/12/26 06:53:48;;;;;;;1.42;1.00;;;11.50;99.90;;;;;;4997403;28;20177;-87
2022/12/26 06:56:19;;;;;;;0.90;0.90;;;11.40;99.90;;;;;;4998191;28;20165;-89
2022/12/26 06:58:47;;;;;;;1.70;1.45;;;11.30;99.90;;;;;;4997662;28;20196;-83
2022/12/26 07:01:17;;;;;;;1.08;0.90;;;11.50;99.90;;;;;;4997124;28;20212;-78
2022/12/26 07:03:44;;;;;;;2.08;1.10;;;11.40;99.90;;;;;;4994972;28;20189;-78
2022/12/26 07:06:25;;;;;;;2.80;0.85;;;11.50;99.90;;;;;;4994827;28;20217;-79
2022/12/26 07:08:53;;;;;;;0.77;0.75;;;11.40;99.90;;;;;;4994612;28;20169;-80
2022/12/26 07:11:23;;;;;;;2.17;0.85;;;11.40;99.90;;;;;;4996115;28;20173;-84
2022/12/26 07:13:50;;;;;;;2.15;0.80;;;11.40;99.90;;;;;;4995060;28;20732;-85
2022/12/26 07:16:16;;;;;;;0.82;0.80;;;11.20;99.90;;;;;;4998086;28;20513;-78
2022/12/26 07:18:42;;;;;;;0.60;0.60;;;11.20;99.90;;;;;;5001525;28;20256;-81
2022/12/26 07:21:09;;;;;;;5.40;0.95;;;11.10;99.90;;;;;;4997460;28;20296;-79
2022/12/26 07:23:35;;;;;;;3.28;0.73;;;11.10;99.90;;;;;;4997582;28;20196;-80
2022/12/26 07:26:00;;;;;;;0.85;0.75;;;11.10;99.90;;;;;;4997235;28;20185;-78
2022/12/26 07:28:28;;;;;;;2.70;0.90;;;11.10;99.90;;;;;;4998428;28;20169;-80
2022/12/26 07:30:56;;;;;;;0.85;0.82;;;10.90;99.90;;;;;;4996814;28;20197;-78
2022/12/26 07:33:23;;;;;;;6.38;1.42;;;10.90;99.90;;;;;;4996147;28;20204;-78
2022/12/26 07:35:49;;;;;;;3.22;0.90;;;10.90;99.90;;;;;;4997234;28;20216;-79
2022/12/26 07:38:14;;;;;;;8.50;0.90;;;11.00;99.90;;;;;;4996635;28;20174;-79
2022/12/26 07:40:40;;;;;;;4.88;0.95;;;11.00;99.90;;;;;;4996734;28;20220;-79
2022/12/26 07:43:06;;;;;;;3.25;0.98;;;11.00;99.90;;;;;;5010218;28;20197;-79
2022/12/26 07:45:31;;;;;;;2.03;1.20;;;10.90;99.90;;;;;;5004139;28;20239;-79
2022/12/26 07:47:57;;;;;;;1.70;1.08;;;11.00;99.90;;;;;;4991818;28;20169;-81
2022/12/26 07:50:24;;;;;;;2.40;1.02;;;10.90;99.90;;;;;;4996274;28;20176;-85
2022/12/26 07:52:50;;;;;;;1.30;0.82;;;11.00;99.90;;;;;;4996216;28;20494;-82
2022/12/26 07:55:16;;;;;;;1.10;1.00;;;10.90;99.90;;;;;;4996281;28;20253;-85
2022/12/26 07:57:42;;;;;;;1.75;1.02;;;10.90;99.90;;;;;;4995558;28;20619;-84
2022/12/26 08:00:08;;;;;;;1.10;0.95;;;11.00;99.90;;;;;;4996258;28;20267;-84
2022/12/26 08:02:34;;;;;;;1.33;0.95;;;10.90;99.90;;;;;;4996895;28;20195;-79
2022/12/26 08:04:59;;;;;;;1.23;0.80;;;10.90;99.90;;;;;;4992391;28;20268;-78
2022/12/26 08:07:25;;;;;;;3.67;1.15;;;10.90;99.90;;;;;;4995109;28;20245;-78
2022/12/26 08:09:50;;;;;;;1.10;0.90;;;10.90;99.90;;;;;;4997164;28;20184;-91
2022/12/26 08:12:20;;;;;;;3.88;0.88;;;11.00;99.90;;;;;;4998704;28;20251;-91
2022/12/26 08:14:46;;;;;;;1.33;0.98;;;11.10;99.90;;;;;;4993792;28;20173;-93
2022/12/26 08:17:11;;;;;;;5.38;1.00;;;11.20;99.90;;;;;;4995631;28;20558;-90
2022/12/26 08:19:49;;;;;;;1.85;1.30;;;11.20;99.90;;;;;;4994016;28;20185;-93
2022/12/26 08:22:16;;;;;;;6.70;0.90;;;11.30;99.90;;;;;;4997290;28;20332;-94
2022/12/26 08:24:46;;;;;;;11.68;1.00;;;11.30;99.90;;;;;;4995343;28;20177;-93
2022/12/26 08:27:12;;;;;;;5.57;1.20;;;11.20;99.90;;;;;;4981240;28;20169;-79
2022/12/26 08:29:37;;;;;;;0.88;0.88;;;11.10;99.90;;;;;;4996829;28;20530;-83
2022/12/26 08:32:06;;;;;;;2.17;1.25;;;11.10;99.90;;;;;;4995900;28;20287;-95
2022/12/26 08:34:35;;;;;;;7.10;1.67;;;11.10;99.90;;;;;;4998599;28;20169;-79
2022/12/26 08:37:01;;;;;;;5.85;1.77;;;11.10;99.90;;;;;;4998298;28;20181;-80
2022/12/26 08:39:27;;;;;;;4.05;1.67;;;11.10;99.90;;;;;;5001901;28;20531;-80
2022/12/26 08:41:55;;;;;;;1.15;0.85;;;11.10;99.90;;;;;;4991206;28;20235;-79
2022/12/26 08:44:24;;;;;;;4.32;1.25;;;11.00;99.90;;;;;;5000380;28;20189;-82
2022/12/26 08:46:49;;;;;;;3.63;1.33;;;11.00;99.90;;;;;;4989934;28;20591;-79
2022/12/26 08:49:18;;;;;;;1.52;0.93;;;11.00;99.90;;;;;;4988116;28;20166;-79
2022/12/26 08:51:43;;;;;;;1.55;1.10;;;11.00;99.90;;;;;;4993757;28;20212;-80
2022/12/26 08:54:09;;;;;;;6.32;1.10;;;11.00;99.90;;;;;;5009038;28;20249;-79
2022/12/26 08:56:35;;;;;;;1.85;1.02;;;11.00;99.90;;;;;;4989564;28;20182;-79
2022/12/26 08:59:00;;;;;;;3.65;1.45;;;11.00;99.90;;;;;;4973419;28;20169;-81
2022/12/26 09:01:29;;;;;;;2.15;1.20;;;11.10;99.90;;;;;;4983260;28;20201;-81
2022/12/26 09:04:03;;;;;;;3.40;1.13;;;11.10;99.90;;;;;;4992929;28;20193;-79
2022/12/26 09:06:31;;;;;;;8.20;2.58;;;11.10;99.90;;;;;;5004820;28;20169;-77
2022/12/26 09:08:58;;;;;;;2.70;0.90;;;11.20;99.90;;;;;;4973788;28;20170;-91
2022/12/26 09:11:28;;;;;;;1.50;1.08;;;11.30;99.90;;;;;;4975425;28;20170;-86
2022/12/26 09:13:55;;;;;;;3.17;1.13;;;11.30;99.90;;;;;;4974920;28;20643;-84
2022/12/26 09:16:26;;;;;;;6.53;1.25;;;11.20;99.90;;;;;;4974272;28;20178;-87
2022/12/26 09:18:56;;;;;;;5.13;1.20;;;11.10;99.90;;;;;;4976933;28;20228;-81
2022/12/26 09:21:23;;;;;;;2.25;1.10;;;11.20;99.90;;;;;;4999954;28;20287;-80
2022/12/26 09:23:48;;;;;;;1.13;0.77;;;11.30;99.90;;;;;;4993518;28;20209;-84
2022/12/26 09:26:17;;;;;;;10.88;1.27;;;11.40;99.90;;;;;;4993475;28;20185;-80
2022/12/26 09:28:45;;;;;;;1.88;0.98;;;11.30;99.90;;;;;;4975130;28;20193;-81
2022/12/26 09:31:17;;;;;;;2.10;1.30;;;11.30;99.90;;;;;;4993084;28;20181;-79
2022/12/26 09:33:43;;;;;;;4.18;1.17;;;11.30;99.90;;;;;;4994738;28;20207;-78
2022/12/26 09:36:12;;;;;;;2.97;1.58;;;11.30;99.90;;;;;;4994306;28;20173;-84
2022/12/26 09:38:38;;;;;;;3.88;1.00;;;11.40;99.90;;;;;;4994096;28;20267;-87
2022/12/26 09:41:15;;;;;;;4.78;1.50;;;11.30;99.90;;;;;;4994190;28;20296;-90
2022/12/26 09:44:05;;;;;;;4.50;1.15;;;11.30;99.90;;;;;;4993815;28;20192;-80
2022/12/26 09:46:42;;;;;;;2.50;1.10;;;11.40;99.90;;;;;;4975000;28;20166;-87
2022/12/26 09:49:17;;;;;;;5.35;1.00;;;11.50;99.90;;;;;;4974049;28;20199;-79
2022/12/26 09:51:50;;;;;;;1.80;1.00;;;11.50;99.90;;;;;;4974082;28;20161;-87
2022/12/26 09:54:39;;;;;;;1.45;0.90;;;11.50;99.90;;;;;;4973063;28;20174;-80
2022/12/26 09:57:14;;;;;;;4.75;1.40;;;11.60;99.90;;;;;;4972774;28;20293;-79
2022/12/26 09:59:56;;;;;;;4.28;1.25;;;11.60;99.90;;;;;;4973642;28;20185;-88
2022/12/26 10:02:24;;;;;;;2.50;1.10;;;11.50;99.90;;;;;;4972919;28;20251;-79
2022/12/26 10:04:50;;;;;;;2.88;1.10;;;11.40;99.90;;;;;;4975817;28;20639;-80
2022/12/26 10:07:41;;;;;;;1.27;0.90;;;11.20;99.90;;;;;;4988413;28;20180;-81
2022/12/26 10:10:41;;;;;;;3.17;2.35;;;11.20;99.90;;;;;;4993647;28;21319;-83
2022/12/26 10:13:15;;;;;;;7.53;6.03;;;11.20;99.90;;;;;;4986365;28;20263;-81
2022/12/26 10:15:48;;;;;;;8.15;4.05;;;11.10;99.90;;;;;;4992940;28;20622;-85
2022/12/26 10:18:25;;;;;;;5.55;1.80;;;11.10;99.90;;;;;;4992067;28;20235;-78
2022/12/26 10:20:59;;;;;;;4.88;1.65;;;11.10;99.90;;;;;;4991033;28;20796;-83
2022/12/26 10:23:36;;;;;;;2.63;1.35;;;11.10;99.90;;;;;;4992189;28;20212;-83
2022/12/26 10:26:17;;;;;;;3.58;1.50;;;11.20;99.90;;;;;;4992062;28;20188;-79
2022/12/26 10:28:58;;;;;;;1.40;1.20;;;11.20;99.90;;;;;;4994837;28;20195;-96
2022/12/26 10:31:45;;;;;;;4.80;1.40;;;11.40;99.90;;;;;;4992832;28;20169;-79
2022/12/26 10:34:20;;;;;;;7.90;1.67;;;11.40;99.90;;;;;;4992357;28;20173;-89
2022/12/26 10:36:50;;;;;;;2.03;1.13;;;11.40;99.90;;;;;;4992387;28;20177;-80
2022/12/26 10:39:38;;;;;;;3.10;1.20;;;11.40;99.90;;;;;;4993050;28;20240;-79
2022/12/26 10:42:27;;;;;;;1.50;1.40;;;11.50;99.90;;;;;;4993929;28;20693;-80
2022/12/26 10:44:53;;;;;;;1.65;1.00;;;11.60;99.90;;;;;;4993810;28;20637;-79
2022/12/26 10:47:36;;;;;;;3.65;1.63;;;11.70;99.90;;;;;;4992742;28;20227;-83
2022/12/26 10:50:02;;;;;;;4.60;1.40;;;11.80;99.90;;;;;;4993132;28;20204;-79
2022/12/26 10:52:38;;;;;;;7.13;2.55;;;11.80;99.90;;;;;;4993265;28;20280;-79
2022/12/26 10:55:05;;;;;;;4.82;1.63;;;11.80;99.90;;;;;;4993069;28;20181;-80
2022/12/26 10:57:35;;;;;;;10.85;1.83;;;11.90;99.90;;;;;;4992977;28;20235;-82
2022/12/26 11:00:12;;;;;;;7.78;2.08;;;11.80;99.90;;;;;;4992419;28;20170;-86
2022/12/26 11:02:37;;;;;;;3.25;1.80;;;11.70;99.90;;;;;;4992465;28;20252;-89
2022/12/26 11:05:08;;;;;;;6.13;1.38;;;11.50;99.90;;;;;;4991606;28;20177;-83
2022/12/26 11:07:37;;;;;;;3.55;1.30;;;11.00;99.90;;;;;;4991311;28;20207;-79
2022/12/26 11:10:12;;;;;;;6.57;1.60;;;10.80;99.90;;;;;;4991701;28;20533;-81
2022/12/26 11:12:42;;;;;;;3.95;2.03;;;10.90;99.90;;;;;;4991319;28;20598;-78
2022/12/26 11:15:30;;;;;;;4.10;1.40;;;10.90;99.90;;;;;;4991253;28;20169;-80
2022/12/26 11:18:18;;;;;;;3.53;1.15;;;10.90;99.90;;;;;;4990851;28;20505;-77
2022/12/26 11:20:47;;;;;;;4.25;1.00;;;11.00;99.90;;;;;;4992054;28;20200;-79
2022/12/26 11:23:20;;;;;;;8.57;1.50;;;11.00;99.90;;;;;;4993178;28;20201;-77
2022/12/26 11:25:57;;;;;;;4.00;1.52;;;11.10;99.90;;;;;;4986074;28;20270;-94
2022/12/26 11:28:33;;;;;;;1.73;0.90;;;11.10;99.90;;;;;;4979803;28;20207;-89
2022/12/26 11:31:30;;;;;;;7.22;1.52;;;11.00;99.90;;;;;;4995035;28;20189;-83
2022/12/26 11:33:55;;;;;;;4.03;1.00;;;11.00;99.90;;;;;;4996521;28;20207;-81
2022/12/26 11:36:29;;;;;;;5.65;1.02;;;10.90;99.90;;;;;;4998633;28;20173;-88
2022/12/26 11:39:24;;;;;;;5.10;1.13;;;10.70;99.90;;;;;;4999663;28;20180;-96
2022/12/26 11:41:54;;;;;;;4.90;1.13;;;10.70;99.90;;;;;;4991165;28;20228;-89
2022/12/26 11:44:25;;;;;;;3.03;1.35;;;10.80;99.90;;;;;;5003888;28;20176;-84
2022/12/26 11:46:56;;;;;;;3.55;1.08;;;10.90;99.90;;;;;;4997433;28;20169;-90
2022/12/26 11:49:28;;;;;;;5.40;1.10;;;11.00;99.90;;;;;;4997372;28;20181;-91
2022/12/26 11:51:57;;;;;;;7.05;1.30;;;10.90;99.90;;;;;;4996564;28;20185;-80
2022/12/26 11:54:25;;;;;;;2.75;1.17;;;10.90;99.90;;;;;;4996733;28;20176;-87
2022/12/26 11:57:00;;;;;;;3.20;1.77;;;10.90;99.90;;;;;;4992010;28;20184;-90
2022/12/26 11:59:26;;;;;;;8.05;1.75;;;10.90;99.90;;;;;;4994584;28;20569;-79
2022/12/26 12:02:21;;;;;;;2.88;1.50;;;10.90;99.90;;;;;;5004884;28;20305;-81
2022/12/26 12:04:49;;;;;;;1.67;1.33;;;10.70;99.90;;;;;;4985819;28;20169;-79
2022/12/26 12:07:49;;;;;;;4.05;1.20;;;10.70;99.90;;;;;;4983098;28;20192;-79
2022/12/26 12:10:33;;;;;;;3.38;1.20;;;10.70;99.90;;;;;;4987890;28;20192;-83
2022/12/26 12:13:10;;;;;;;10.13;3.40;;;10.60;99.90;;;;;;4978110;28;20244;-85
2022/12/26 12:15:59;;;;;;;9.75;2.50;;;10.70;99.90;;;;;;4978656;28;20169;-87
2022/12/26 12:18:43;;;;;;;12.00;3.38;;;10.80;99.90;;;;;;4977678;28;20517;-92
2022/12/26 12:21:30;;;;;;;3.55;2.05;;;10.70;99.90;;;;;;4977039;28;20220;-88
2022/12/26 12:24:17;;;;;;;5.63;1.52;;;10.80;99.90;;;;;;4975547;28;20197;-87
2022/12/26 12:27:11;;;;;;;2.55;1.15;;;10.90;99.90;;;;;;4974344;28;20301;-80
2022/12/26 12:29:55;;;;;;;2.30;1.38;;;10.90;99.90;;;;;;4989896;28;20199;-86
2022/12/26 12:33:00;;;;;;;8.82;1.80;;;11.00;99.90;;;;;;4994569;28;20645;-79
2022/12/26 12:35:41;;;;;;;3.75;1.70;;;11.00;99.90;;;;;;4994735;28;20181;-82
2022/12/26 12:38:29;;;;;;;7.03;2.25;;;10.80;99.90;;;;;;4995739;28;20181;-86
2022/12/26 12:41:42;;;;;;;3.28;1.20;;;10.60;99.90;;;;;;4998220;28;20217;-85
2022/12/26 12:44:29;;;;;;;4.72;1.00;;;10.50;99.90;;;;;;4976813;28;20278;-81
2022/12/26 12:47:03;;;;;;;7.25;2.65;;;10.30;99.90;;;;;;4956962;28;20182;-82
2022/12/26 12:49:35;;;;;;;2.95;1.50;;;10.50;99.90;;;;;;4989730;28;20184;-84
2022/12/26 12:52:29;;;;;;;4.70;1.67;;;10.50;99.90;;;;;;4992746;28;20193;-79
2022/12/26 12:55:21;;;;;;;5.95;1.70;;;10.20;99.90;;;;;;4994611;28;20192;-80
2022/12/26 12:58:05;;;;;;;12.80;1.55;;;10.30;99.90;;;;;;4992836;28;20505;-79
2022/12/26 13:00:54;;;;;;;9.25;2.03;;;10.50;99.90;;;;;;4995343;28;20214;-79
2022/12/26 13:03:45;;;;;;;5.13;1.50;;;10.50;99.90;;;;;;4994187;28;20592;-79
2022/12/26 13:06:17;;;;;;;4.95;1.50;;;10.50;99.90;;;;;;4993393;28;20181;-82
2022/12/26 13:08:50;;;;;;;4.07;1.45;;;10.60;99.90;;;;;;4994437;28;20184;-78
2022/12/26 13:11:16;;;;;;;3.70;1.20;;;10.40;99.90;;;;;;4996072;28;20176;-79
2022/12/26 13:13:49;;;;;;;6.72;2.05;;;10.40;99.90;;;;;;4993686;28;20193;-83
2022/12/26 13:16:22;;;;;;;9.30;1.75;;;10.40;99.90;;;;;;4986072;28;20192;-79
2022/12/26 13:19:03;;;;;;;2.70;1.88;;;10.40;99.90;;;;;;4993809;28;20182;-78
2022/12/26 13:21:38;;;;;;;7.95;1.40;;;10.30;99.90;;;;;;4994023;28;20288;-79
2022/12/26 13:24:24;;;;;;;4.15;1.60;;;10.20;99.90;;;;;;4992954;28;20184;-80
2022/12/26 13:27:14;;;;;;;3.28;1.58;;;10.10;99.90;;;;;;4993831;28;20172;-80
2022/12/26 13:29:43;;;;;;;5.03;1.40;;;10.20;99.90;;;;;;4994117;28;20276;-79
2022/12/26 13:32:29;;;;;;;9.70;1.48;;;10.40;99.90;;;;;;4994370;28;20189;-79
2022/12/26 13:34:57;;;;;;;8.75;4.32;;;10.20;99.90;;;;;;4996402;28;20200;-80
2022/12/26 13:37:38;;;;;;;8.02;1.70;;;10.00;99.90;;;;;;4997047;28;20189;-80
2022/12/26 13:40:12;;;;;;;6.50;1.48;;;9.80;99.90;;;;;;4994562;28;20239;-83
2022/12/26 13:45:56;;;;;;;4.18;1.10;;;9.80;99.90;;;;;;4994622;28;20597;-83
2022/12/26 13:48:29;;;;;;;10.57;2.13;;;9.80;99.90;;;;;;4994423;28;20165;-79
2022/12/26 13:51:00;;;;;;;4.35;1.17;;;9.70;99.90;;;;;;4994208;28;20645;-80
2022/12/26 13:53:25;;;;;;;5.00;1.27;;;9.60;99.90;;;;;;4994412;28;20189;-79
2022/12/26 13:55:55;;;;;;;8.00;1.30;;;9.70;99.90;;;;;;4994055;28;20240;-80
2022/12/26 13:58:46;;;;;;;5.60;1.10;;;9.70;99.90;;;;;;4994591;28;20180;-79
2022/12/26 14:01:30;;;;;;;4.18;1.35;;;9.70;99.90;;;;;;4993704;28;20205;-80
2022/12/26 14:04:25;;;;;;;11.82;1.73;;;9.60;99.90;;;;;;4993992;28;20209;-81
2022/12/26 14:07:19;;;;;;;11.38;1.90;;;9.50;99.90;;;;;;4994500;28;20200;-79
2022/12/26 14:10:13;;;;;;;3.70;1.05;;;9.50;99.90;;;;;;4993989;28;20172;-87
2022/12/26 14:12:57;;;;;;;4.75;1.15;;;9.40;99.90;;;;;;4993197;28;20601;-81
2022/12/26 14:15:46;;;;;;;15.43;3.33;;;9.40;99.90;;;;;;4998325;28;20189;-79
2022/12/26 14:18:40;;;;;;;11.63;3.28;;;9.20;99.90;;;;;;5009582;28;20173;-81
2022/12/26 14:21:30;;;;;;;6.32;2.45;;;9.30;99.90;;;;;;4993895;28;20215;-84
2022/12/26 14:24:07;;;;;;;9.35;2.35;;;9.20;99.90;;;;;;4993811;28;20185;-79
2022/12/26 14:26:41;;;;;;;6.45;2.17;;;9.20;99.90;;;;;;4994066;28;20165;-82
2022/12/26 14:29:28;;;;;;;7.07;1.20;;;9.10;99.90;;;;;;4993737;28;20197;-82
2022/12/26 14:32:12;;;;;;;10.20;1.85;;;9.00;99.90;;;;;;4994008;28;20213;-82
2022/12/26 14:34:54;;;;;;;7.97;1.23;;;8.90;99.90;;;;;;4993800;28;20169;-80
2022/12/26 14:37:33;;;;;;;6.43;1.00;;;8.90;99.90;;;;;;4997316;28;20192;-79
2022/12/26 14:40:02;;;;;;;10.63;1.13;;;8.70;99.90;;;;;;5008294;28;20161;-79
2022/12/26 14:45:28;;;;;;;7.47;1.25;;;8.60;99.90;;;;;;4996057;28;20200;-82
2022/12/26 14:47:54;;;;;;;10.27;2.50;;;8.50;99.90;;;;;;5000658;28;20228;-79
2022/12/26 14:50:45;;;;;;;14.98;1.55;;;8.50;99.90;;;;;;4994998;28;20204;-80
2022/12/26 14:53:28;;;;;;;4.35;1.23;;;8.30;99.90;;;;;;5013956;28;20196;-80
2022/12/26 14:56:29;;;;;;;7.95;2.03;;;8.30;99.90;;;;;;4998400;28;20184;-80
2022/12/26 14:59:33;;;;;;;9.15;2.38;;;8.20;99.90;;;;;;4998188;28;20176;-88
2022/12/26 15:02:28;;;;;;;5.60;0.90;;;8.10;99.90;;;;;;4998018;28;20232;-90
2022/12/26 15:05:12;;;;;;;4.10;1.00;;;8.10;99.90;;;;;;4999501;28;20177;-80
2022/12/26 15:07:56;;;;;;;7.32;1.58;;;7.90;99.90;;;;;;5012677;28;20186;-84
2022/12/26 15:10:40;;;;;;;13.48;5.82;;;7.90;99.90;;;;;;4997678;28;20504;-86
2022/12/26 15:13:26;;;;;;;10.32;2.20;;;7.90;99.90;;;;;;5012538;28;20189;-83
2022/12/26 15:16:06;;;;;;;9.30;2.25;;;7.90;99.90;;;;;;5012882;28;20177;-82
2022/12/26 15:19:07;;;;;;;8.02;2.50;;;7.90;99.90;;;;;;4997743;28;20177;-83
2022/12/26 15:22:10;;;;;;;5.28;1.38;;;7.80;99.90;;;;;;4997502;28;20213;-79
2022/12/26 15:24:41;;;;;;;5.40;1.38;;;7.80;99.90;;;;;;4997495;28;20191;-80
2022/12/26 15:27:22;;;;;;;6.45;1.48;;;7.90;99.90;;;;;;4997023;28;20698;-81
2022/12/26 15:30:33;;;;;;;6.93;1.77;;;7.70;99.90;;;;;;4997206;28;20185;-79